Time;durP1;ratioP1;P1;durP2;ratioP2;P2;SDS_P1;SDS_P2;PMS_P1;PMS_P2;Temp;Humidity;BMP_temperature;BMP_pressure;BME280_temperature;BME280_humidity;BME280_pressure;Samples;Min_cycle;Max_cycle;Signal;HPM_P1;HPM_P2
2021/07/25 00:01:48;;;;;;;11.05;7.28;;;;;;;17.56;74.35;98890.88;5010603;28;20482;-71
2021/07/25 00:04:14;;;;;;;9.30;7.15;;;;;;;17.56;74.08;98890.88;5010181;28;20121;-72
2021/07/25 00:06:40;;;;;;;10.10;6.88;;;;;;;17.50;74.39;98894.09;5010555;28;20034;-70
2021/07/25 00:09:05;;;;;;;10.15;8.05;;;;;;;17.44;74.43;98890.19;5010455;28;20514;-70
2021/07/25 00:11:30;;;;;;;8.55;7.35;;;;;;;17.41;74.87;98885.13;5010558;28;20437;-70
2021/07/25 00:13:58;;;;;;;11.23;7.30;;;;;;;17.41;74.80;98894.97;5013773;28;20065;-71
2021/07/25 00:16:23;;;;;;;7.25;6.05;;;;;;;17.42;74.58;98885.97;5009828;28;20038;-70
2021/07/25 00:18:49;;;;;;;8.65;6.18;;;;;;;17.41;74.74;98884.31;5009774;28;20648;-70
2021/07/25 00:21:14;;;;;;;11.25;7.07;;;;;;;17.38;75.05;98885.44;4999010;28;20042;-71
2021/07/25 00:23:45;;;;;;;9.02;7.10;;;;;;;17.34;75.22;98882.19;5011975;28;20041;-71
2021/07/25 00:26:16;;;;;;;10.68;7.63;;;;;;;17.24;75.01;98881.34;4993429;28;20036;-71
2021/07/25 00:28:41;;;;;;;11.65;7.45;;;;;;;17.15;75.66;98884.84;5017998;28;20033;-70
2021/07/25 00:31:08;;;;;;;10.40;7.65;;;;;;;17.09;75.79;98883.59;5013467;28;20076;-70
2021/07/25 00:33:36;;;;;;;9.00;7.80;;;;;;;17.02;75.94;98878.97;5028975;28;20041;-70
2021/07/25 00:36:04;;;;;;;11.43;8.48;;;;;;;16.97;76.23;98881.22;5016762;28;20033;-70
2021/07/25 00:38:30;;;;;;;9.75;7.72;;;;;;;16.93;76.59;98883.28;5027672;28;20045;-71
2021/07/25 00:40:59;;;;;;;9.07;7.47;;;;;;;16.87;76.70;98874.03;5017845;28;20132;-72
2021/07/25 00:43:28;;;;;;;8.13;6.55;;;;;;;16.90;76.36;98883.56;5013723;28;20028;-72
2021/07/25 00:45:55;;;;;;;9.38;7.50;;;;;;;16.93;76.25;98883.28;5024378;28;20057;-51
2021/07/25 00:48:22;;;;;;;7.63;6.35;;;;;;;16.91;76.52;98879.94;5001234;28;20099;-50
2021/07/25 00:50:48;;;;;;;12.48;7.63;;;;;;;17.04;75.51;98877.84;5018752;28;20038;-71
2021/07/25 00:53:13;;;;;;;8.13;7.30;;;;;;;16.98;75.53;98877.56;5009942;28;20037;-71
2021/07/25 00:55:41;;;;;;;8.32;6.63;;;;;;;16.88;75.76;98886.38;5009916;28;20084;-71
2021/07/25 00:58:06;;;;;;;9.60;7.57;;;;;;;16.78;75.78;98872.19;5012095;28;20110;-70
2021/07/25 01:00:32;;;;;;;10.93;7.70;;;;;;;16.75;76.13;98875.94;4986171;28;20485;-71
2021/07/25 01:03:13;;;;;;;11.45;7.50;;;;;;;16.67;77.02;98873.13;5009422;28;20059;-71
2021/07/25 01:05:53;;;;;;;10.40;6.90;;;;;;;16.58;77.02;98876.59;5007017;28;20033;-71
2021/07/25 01:08:30;;;;;;;9.57;6.88;;;;;;;16.55;76.54;98874.22;5006657;28;20033;-71
2021/07/25 01:10:58;;;;;;;8.00;6.80;;;;;;;16.51;76.75;98864.81;5007298;28;20071;-71
2021/07/25 01:13:27;;;;;;;9.60;6.68;;;;;;;16.52;76.95;98866.53;5009365;28;20040;-71
2021/07/25 01:15:53;;;;;;;9.45;7.60;;;;;;;16.48;77.02;98865.94;5009545;28;20037;-71
2021/07/25 01:18:19;;;;;;;12.07;7.63;;;;;;;16.43;77.35;98868.16;4997949;28;20026;-71
2021/07/25 01:20:45;;;;;;;16.75;8.48;;;;;;;16.44;76.89;98864.53;5009003;28;20421;-71
2021/07/25 01:23:10;;;;;;;9.55;7.10;;;;;;;16.41;77.14;98859.47;5009222;28;20107;-71
2021/07/25 01:25:36;;;;;;;9.65;6.40;;;;;;;16.40;76.93;98863.13;5009271;28;20056;-71
2021/07/25 01:28:13;;;;;;;10.38;6.72;;;;;;;16.38;76.78;98858.91;5008598;28;20410;-71
2021/07/25 01:30:42;;;;;;;10.65;6.43;;;;;;;16.40;76.97;98857.81;5007656;28;20034;-71
2021/07/25 01:33:11;;;;;;;8.48;6.15;;;;;;;16.43;76.64;98856.69;5007333;28;20045;-71
2021/07/25 01:35:38;;;;;;;8.40;6.25;;;;;;;16.44;76.81;98861.00;5007537;28;20045;-71
2021/07/25 01:38:06;;;;;;;7.60;6.43;;;;;;;16.45;76.54;98855.56;5008532;28;20474;-71
2021/07/25 01:40:31;;;;;;;10.25;5.55;;;;;;;16.47;76.92;98853.63;5011236;28;20034;-72
2021/07/25 01:42:57;;;;;;;7.38;6.00;;;;;;;16.51;76.82;98854.19;5013274;28;20038;-70
2021/07/25 01:45:23;;;;;;;12.13;6.32;;;;;;;16.51;76.88;98854.19;5012514;28;20081;-70
2021/07/25 01:47:48;;;;;;;9.27;5.57;;;;;;;16.53;76.96;98858.38;5011497;28;20105;-70
2021/07/25 01:50:14;;;;;;;6.68;5.82;;;;;;;16.55;76.79;98858.25;5012881;28;20591;-70
2021/07/25 01:52:41;;;;;;;9.65;5.90;;;;;;;16.57;76.65;98852.81;5012609;28;20065;-69
2021/07/25 01:55:06;;;;;;;10.25;5.38;;;;;;;16.58;76.98;98855.31;5012499;28;20058;-70
2021/07/25 01:57:32;;;;;;;7.63;6.05;;;;;;;16.55;77.23;98852.94;5011867;28;20572;-70
2021/07/25 01:59:57;;;;;;;8.95;7.07;;;;;;;16.58;76.63;98857.97;5012754;28;20046;-70
2021/07/25 02:02:23;;;;;;;7.35;4.82;;;;;;;16.59;76.78;98851.69;5013238;28;20030;-69
2021/07/25 02:04:49;;;;;;;7.32;5.65;;;;;;;16.62;76.49;98851.41;5012735;28;20038;-69
2021/07/25 02:07:14;;;;;;;11.15;4.22;;;;;;;16.66;76.54;98855.50;5012111;28;20497;-70
2021/07/25 02:09:39;;;;;;;6.57;4.15;;;;;;;16.70;76.13;98853.38;5011114;28;20088;-70
2021/07/25 02:12:06;;;;;;;6.57;4.35;;;;;;;16.74;76.39;98854.81;5013735;28;20056;-70
2021/07/25 02:14:33;;;;;;;9.02;5.05;;;;;;;16.75;76.37;98846.66;5026316;28;20044;-69
2021/07/25 02:16:59;;;;;;;7.57;5.38;;;;;;;16.76;76.01;98850.19;5012987;28;20037;-69
2021/07/25 02:19:24;;;;;;;7.28;4.63;;;;;;;16.78;75.92;98848.25;5013583;28;20088;-71
2021/07/25 02:21:50;;;;;;;6.95;5.20;;;;;;;16.73;75.99;98842.47;5013254;28;20048;-71
2021/07/25 02:24:15;;;;;;;8.82;5.85;;;;;;;16.73;76.00;98847.78;5026101;28;20072;-71
2021/07/25 02:26:40;;;;;;;7.03;4.10;;;;;;;16.75;75.58;98840.50;5031854;28;20029;-71
2021/07/25 02:29:06;;;;;;;6.18;4.80;;;;;;;16.73;75.82;98842.47;5032391;28;20035;-71
2021/07/25 02:31:31;;;;;;;7.28;4.63;;;;;;;16.69;76.32;98849.91;5032425;28;20105;-70
2021/07/25 02:33:56;;;;;;;6.60;4.35;;;;;;;16.66;76.17;98844.00;5032746;28;20025;-71
2021/07/25 02:36:22;;;;;;;8.70;4.65;;;;;;;16.62;76.09;98840.78;5032276;28;20061;-71
2021/07/25 02:38:47;;;;;;;6.07;4.55;;;;;;;16.62;76.29;98842.59;5032249;28;20061;-71
2021/07/25 02:41:12;;;;;;;6.10;3.92;;;;;;;16.60;76.34;98847.22;5019952;28;20129;-70
2021/07/25 02:43:38;;;;;;;5.20;4.13;;;;;;;16.63;76.27;98842.44;4996161;28;20034;-72
2021/07/25 02:46:03;;;;;;;6.20;4.15;;;;;;;16.65;75.96;98840.50;5004256;28;20057;-70
2021/07/25 02:48:28;;;;;;;9.70;4.38;;;;;;;16.69;75.65;98835.75;5011000;28;20084;-70
2021/07/25 02:50:58;;;;;;;6.85;4.25;;;;;;;16.73;75.51;98839.78;5011098;28;20030;-70
2021/07/25 02:53:26;;;;;;;6.35;4.35;;;;;;;16.73;75.89;98842.47;5012431;28;20038;-70
2021/07/25 02:55:52;;;;;;;11.60;3.85;;;;;;;16.74;75.31;98837.00;5012385;28;20026;-69
2021/07/25 02:58:18;;;;;;;7.97;3.70;;;;;;;16.72;75.41;98830.97;5010350;28;20578;-70
2021/07/25 03:00:43;;;;;;;6.60;4.72;;;;;;;16.71;75.87;98833.75;5011986;28;20124;-69
2021/07/25 03:03:08;;;;;;;6.15;3.95;;;;;;;16.69;75.18;98838.41;5026563;28;20512;-70
2021/07/25 03:05:34;;;;;;;7.00;4.43;;;;;;;16.68;75.41;98844.69;5031532;28;20029;-70
2021/07/25 03:07:59;;;;;;;6.88;4.43;;;;;;;16.61;75.95;98827.59;5030411;28;20034;-70
2021/07/25 03:10:24;;;;;;;7.95;5.03;;;;;;;16.57;75.67;98826.22;5032215;28;20072;-71
2021/07/25 03:12:49;;;;;;;7.53;4.45;;;;;;;16.56;75.76;98840.47;5031709;28;20054;-70
2021/07/25 03:15:15;;;;;;;6.15;4.30;;;;;;;16.50;76.01;98840.03;5031688;28;20068;-69
2021/07/25 03:17:40;;;;;;;10.10;4.80;;;;;;;16.46;76.12;98827.97;5031229;28;20030;-70
2021/07/25 03:20:06;;;;;;;7.95;4.35;;;;;;;16.38;76.39;98825.16;5031372;28;20529;-71
2021/07/25 03:22:32;;;;;;;7.38;4.82;;;;;;;16.37;76.46;98835.97;5031365;28;20025;-71
2021/07/25 03:24:57;;;;;;;16.05;4.70;;;;;;;16.30;77.15;98838.31;5031521;28;20033;-70
2021/07/25 03:27:23;;;;;;;5.57;4.00;;;;;;;16.29;76.92;98840.13;5031425;28;20025;-71
2021/07/25 03:29:48;;;;;;;6.63;4.63;;;;;;;16.26;77.22;98829.75;5031244;28;20858;-71
2021/07/25 03:32:18;;;;;;;8.38;4.28;;;;;;;16.24;77.28;98830.84;5031197;28;20044;-71
2021/07/25 03:34:44;;;;;;;6.03;3.83;;;;;;;16.25;76.92;98840.53;5031015;28;20034;-71
2021/07/25 03:37:09;;;;;;;7.20;4.20;;;;;;;16.28;76.87;98832.28;5015598;28;20034;-71
2021/07/25 03:39:34;;;;;;;6.10;4.38;;;;;;;16.23;77.05;98839.81;4991782;28;20030;-71
2021/07/25 03:42:00;;;;;;;6.05;4.53;;;;;;;16.24;76.97;98844.16;5000306;28;20120;-72
2021/07/25 03:44:25;;;;;;;7.72;5.25;;;;;;;16.22;77.39;98840.78;5011656;28;20117;-72
2021/07/25 03:46:52;;;;;;;12.55;4.57;;;;;;;16.22;77.30;98840.78;5011262;28;20088;-71
2021/07/25 03:49:17;;;;;;;9.07;5.35;;;;;;;16.24;77.18;98834.38;5011590;28;20038;-71
2021/07/25 03:51:42;;;;;;;6.65;4.50;;;;;;;16.23;77.06;98834.50;5011568;28;20112;-71
2021/07/25 03:54:08;;;;;;;9.07;5.07;;;;;;;16.20;77.07;98830.31;5009852;28;20116;-71
2021/07/25 03:56:35;;;;;;;10.13;4.90;;;;;;;16.13;77.12;98831.81;5009280;28;20112;-72
2021/07/25 03:59:00;;;;;;;8.15;5.80;;;;;;;16.08;77.10;98832.22;5011341;28;20117;-71
2021/07/25 04:01:26;;;;;;;7.72;4.78;;;;;;;16.04;77.41;98835.25;5011555;28;20448;-71
2021/07/25 04:03:51;;;;;;;9.65;5.45;;;;;;;16.00;77.50;98837.38;5010604;28;20034;-71
2021/07/25 04:06:17;;;;;;;7.40;4.60;;;;;;;15.97;77.90;98834.13;5011177;28;20088;-70
2021/07/25 04:08:42;;;;;;;10.48;5.15;;;;;;;15.93;78.34;98838.03;5010562;28;20034;-70
2021/07/25 04:11:07;;;;;;;9.45;5.10;;;;;;;15.92;78.32;98846.97;4985948;28;20034;-70
2021/07/25 04:13:33;;;;;;;5.85;4.28;;;;;;;15.93;78.44;98844.19;5011085;28;20033;-70
2021/07/25 04:15:58;;;;;;;6.82;4.82;;;;;;;15.98;78.04;98835.81;5010919;28;20474;-71
2021/07/25 04:18:23;;;;;;;5.18;3.75;;;;;;;16.02;78.24;98837.22;5010111;28;20065;-70
2021/07/25 04:20:49;;;;;;;5.95;4.20;;;;;;;16.04;77.90;98849.41;5010629;28;20041;-69
2021/07/25 04:23:14;;;;;;;9.50;4.32;;;;;;;16.06;78.10;98846.63;5010737;28;20058;-71
2021/07/25 04:25:39;;;;;;;8.45;4.30;;;;;;;16.03;78.36;98845.06;5010758;28;20084;-70
2021/07/25 04:28:06;;;;;;;12.02;5.40;;;;;;;16.03;78.08;98846.88;5003099;28;20061;-71
2021/07/25 04:30:32;;;;;;;8.10;4.45;;;;;;;16.04;78.46;98845.91;5002518;28;20159;-71
2021/07/25 04:32:58;;;;;;;9.60;4.93;;;;;;;16.06;78.14;98844.78;4995438;28;20038;-69
2021/07/25 04:35:24;;;;;;;8.63;4.70;;;;;;;16.08;78.48;98845.50;4991330;28;20066;-70
2021/07/25 04:37:53;;;;;;;5.38;4.00;;;;;;;16.12;78.41;98842.56;5001239;28;20037;-70
2021/07/25 04:40:19;;;;;;;7.35;5.13;;;;;;;16.14;78.19;98835.31;5010705;28;20025;-70
2021/07/25 04:42:56;;;;;;;6.40;4.55;;;;;;;16.16;78.04;98844.84;5009936;28;20112;-70
2021/07/25 04:45:42;;;;;;;6.03;4.40;;;;;;;16.16;78.51;98847.50;5010363;28;20120;-71
2021/07/25 04:48:29;;;;;;;11.45;5.57;;;;;;;16.21;78.27;98845.28;5008095;28;20045;-71
2021/07/25 04:51:03;;;;;;;7.38;4.57;;;;;;;16.29;77.73;98844.59;5010397;28;20062;-70
2021/07/25 04:53:38;;;;;;;9.43;5.40;;;;;;;16.31;78.05;98845.31;4994671;28;20662;-71
2021/07/25 04:56:06;;;;;;;;;;;;;;;16.29;78.66;98852.56;4990862;28;20077;-70
2021/07/25 04:58:48;;;;;;;8.05;4.75;;;;;;;16.34;78.63;98847.69;4989152;28;19964;-71
2021/07/25 05:01:18;;;;;;;11.43;5.28;;;;;;;16.40;78.63;98849.81;4996754;28;20037;-70
2021/07/25 05:03:44;;;;;;;10.15;4.85;;;;;;;16.44;78.43;98845.06;5009544;28;20026;-71
2021/07/25 05:06:12;;;;;;;8.70;4.85;;;;;;;16.50;78.11;98848.03;5009969;28;20053;-71
2021/07/25 05:08:38;;;;;;;7.20;4.28;;;;;;;16.64;78.09;98857.44;5009517;28;20033;-71
2021/07/25 05:11:09;;;;;;;5.07;3.47;;;;;;;16.87;77.35;98851.91;5008823;28;20045;-71
2021/07/25 05:13:37;;;;;;;5.03;3.65;;;;;;;17.07;76.73;98858.91;5061025;28;20033;-70
2021/07/25 05:16:07;;;;;;;5.97;4.22;;;;;;;17.27;76.05;98867.75;5029231;28;20496;-71
2021/07/25 05:18:39;;;;;;;11.77;4.47;;;;;;;17.45;75.71;98862.56;5029351;28;20117;-70
2021/07/25 05:21:29;;;;;;;7.10;4.55;;;;;;;17.61;74.62;98864.63;5029259;28;20444;-71
2021/07/25 05:23:57;;;;;;;5.03;3.42;;;;;;;17.72;73.95;98872.47;5028998;28;20038;-71
2021/07/25 05:26:25;;;;;;;5.90;3.75;;;;;;;17.81;73.15;98866.31;5029745;28;20083;-71
2021/07/25 05:28:55;;;;;;;6.88;3.75;;;;;;;17.94;72.98;98866.00;5029177;28;20029;-71
2021/07/25 05:31:28;;;;;;;5.43;3.47;;;;;;;18.07;72.92;98864.84;5029317;28;20037;-71
2021/07/25 05:33:53;;;;;;;9.23;4.18;;;;;;;18.15;72.22;98863.13;5029795;28;20555;-71
2021/07/25 05:36:18;;;;;;;4.82;3.42;;;;;;;18.20;71.80;98862.69;5029049;28;20037;-71
2021/07/25 05:38:43;;;;;;;6.32;3.92;;;;;;;18.28;71.70;98864.59;5001344;28;20066;-70
2021/07/25 05:41:09;;;;;;;6.85;3.78;;;;;;;18.36;71.31;98864.69;4989936;28;20482;-71
2021/07/25 05:43:34;;;;;;;6.22;3.72;;;;;;;18.40;71.06;98864.25;5002219;28;20034;-70
2021/07/25 05:45:59;;;;;;;8.80;4.15;;;;;;;18.48;70.75;98863.50;5010011;28;20040;-71
2021/07/25 05:48:25;;;;;;;9.18;4.63;;;;;;;18.55;70.96;98863.75;5009234;28;20034;-70
2021/07/25 05:50:50;;;;;;;6.47;3.92;;;;;;;18.61;70.65;98869.34;5009304;28;20037;-72
2021/07/25 05:53:16;;;;;;;6.30;3.55;;;;;;;18.69;70.43;98868.59;5009365;28;20550;-72
2021/07/25 05:55:41;;;;;;;6.00;3.58;;;;;;;18.75;70.07;98868.00;5009411;28;20034;-72
2021/07/25 05:58:06;;;;;;;5.25;3.33;;;;;;;18.81;69.48;98866.59;5009134;28;20030;-71
2021/07/25 06:00:32;;;;;;;5.63;3.30;;;;;;;18.88;69.19;98863.19;5009973;28;20049;-72
2021/07/25 06:02:59;;;;;;;5.78;4.15;;;;;;;18.95;68.36;98860.75;5009192;28;20050;-73
2021/07/25 06:05:26;;;;;;;6.40;3.65;;;;;;;18.99;68.19;98861.28;5009596;28;20204;-72
2021/07/25 06:07:52;;;;;;;6.63;3.70;;;;;;;19.06;68.34;98852.50;5007306;28;20036;-71
2021/07/25 06:10:19;;;;;;;9.27;3.78;;;;;;;19.15;67.92;98845.41;5009336;28;20413;-70
2021/07/25 06:12:44;;;;;;;6.30;3.88;;;;;;;19.18;67.59;98850.44;5009513;28;20025;-70
2021/07/25 06:15:10;;;;;;;6.47;3.08;;;;;;;19.27;67.23;98846.84;5009324;28;20034;-70
2021/07/25 06:17:36;;;;;;;7.05;3.53;;;;;;;19.38;66.90;98836.91;5009155;28;20065;-70
2021/07/25 06:20:02;;;;;;;6.75;3.33;;;;;;;19.48;66.94;98837.66;5009873;28;20062;-71
2021/07/25 06:22:45;;;;;;;5.28;3.25;;;;;;;19.58;66.65;98837.56;5007961;28;20030;-71
2021/07/25 06:25:12;;;;;;;5.20;3.47;;;;;;;19.67;66.16;98832.13;5006972;28;20042;-71
2021/07/25 06:27:38;;;;;;;7.05;3.30;;;;;;;19.80;65.89;98844.25;5010800;28;20124;-72
2021/07/25 06:30:06;;;;;;;6.93;3.30;;;;;;;19.91;65.40;98836.81;5011771;28;20168;-72
2021/07/25 06:32:31;;;;;;;5.18;3.00;;;;;;;20.03;64.87;98834.66;5013241;28;20034;-73
2021/07/25 06:34:56;;;;;;;6.43;3.30;;;;;;;20.10;64.57;98830.34;5013166;28;20117;-72
2021/07/25 06:37:22;;;;;;;4.68;3.40;;;;;;;20.18;64.65;98837.59;5012950;28;20168;-72
2021/07/25 06:39:47;;;;;;;6.43;4.22;;;;;;;20.28;64.10;98838.31;5013077;28;20061;-72
2021/07/25 06:42:15;;;;;;;5.68;3.10;;;;;;;20.33;63.45;98832.47;5013091;28;20044;-72
2021/07/25 06:44:40;;;;;;;6.07;3.33;;;;;;;20.36;63.23;98838.34;5012843;28;20383;-72
2021/07/25 06:47:06;;;;;;;5.00;2.92;;;;;;;20.42;62.85;98833.34;5013013;28;20076;-71
2021/07/25 06:49:31;;;;;;;3.97;2.95;;;;;;;20.50;62.79;98833.38;5013540;28;20116;-72
2021/07/25 06:51:56;;;;;;;4.78;2.80;;;;;;;20.61;62.64;98832.28;5012758;28;20053;-72
2021/07/25 06:54:22;;;;;;;4.40;2.88;;;;;;;20.68;61.90;98828.78;5004185;28;20057;-72
2021/07/25 06:56:47;;;;;;;9.07;3.78;;;;;;;20.77;62.10;98840.34;5010886;28;20314;-72
2021/07/25 06:59:12;;;;;;;4.22;2.75;;;;;;;20.87;61.60;98842.88;5012705;28;20073;-72
2021/07/25 07:01:37;;;;;;;4.55;2.97;;;;;;;20.95;60.97;98835.69;5011186;28;20084;-72
2021/07/25 07:04:03;;;;;;;4.20;3.17;;;;;;;21.02;61.21;98847.44;5012556;28;20116;-71
2021/07/25 07:06:28;;;;;;;7.32;2.88;;;;;;;21.06;60.54;98834.53;5010591;28;20151;-71
2021/07/25 07:08:54;;;;;;;5.07;3.13;;;;;;;21.15;59.86;98846.09;5012577;28;20045;-72
2021/07/25 07:11:25;;;;;;;4.03;2.70;;;;;;;21.25;60.03;98848.63;5011088;28;20597;-71
2021/07/25 07:13:51;;;;;;;6.43;3.20;;;;;;;21.30;59.76;98846.28;5001865;28;20039;-71
2021/07/25 07:16:17;;;;;;;4.72;3.13;;;;;;;21.46;59.58;98846.28;5020328;28;20036;-70
2021/07/25 07:18:42;;;;;;;6.68;3.67;;;;;;;21.65;58.84;98843.25;5031686;28;20026;-71
2021/07/25 07:21:07;;;;;;;10.75;4.03;;;;;;;21.90;58.39;98845.91;5031618;28;20041;-72
2021/07/25 07:23:33;;;;;;;6.90;3.22;;;;;;;22.31;57.18;98844.97;5032184;28;20440;-72
2021/07/25 07:25:58;;;;;;;5.53;2.55;;;;;;;22.51;56.34;98846.22;5031596;28;20490;-72
2021/07/25 07:28:23;;;;;;;5.35;2.63;;;;;;;22.87;55.89;98854.59;5031207;28;20037;-72
2021/07/25 07:30:51;;;;;;;6.53;3.17;;;;;;;23.28;54.48;98853.50;5031609;28;20128;-71
2021/07/25 07:33:19;;;;;;;5.03;2.60;;;;;;;23.44;53.86;98855.25;5031599;28;20561;-71
2021/07/25 07:35:44;;;;;;;6.30;3.45;;;;;;;23.64;52.94;98851.03;5031417;28;20490;-71
2021/07/25 07:38:11;;;;;;;5.50;3.42;;;;;;;23.92;52.33;98855.81;5011224;28;20084;-72
2021/07/25 07:40:38;;;;;;;5.28;3.25;;;;;;;23.98;51.74;98857.78;4991628;28;20037;-71
2021/07/25 07:43:05;;;;;;;5.07;2.90;;;;;;;24.06;50.96;98862.25;5003959;28;20445;-71
2021/07/25 07:45:33;;;;;;;6.50;3.17;;;;;;;24.06;51.68;98862.25;5002530;28;20038;-71
2021/07/25 07:47:58;;;;;;;6.07;3.10;;;;;;;24.14;51.05;98860.28;5010739;28;20064;-71
2021/07/25 07:50:23;;;;;;;4.10;3.28;;;;;;;24.19;51.06;98863.28;5011472;28;20050;-71
2021/07/25 07:52:49;;;;;;;5.40;3.13;;;;;;;24.20;50.54;98867.63;5011670;28;20062;-71
2021/07/25 07:55:15;;;;;;;5.35;2.90;;;;;;;24.21;50.91;98866.59;5011251;28;20038;-71
2021/07/25 07:57:41;;;;;;;5.15;2.78;;;;;;;24.51;50.05;98871.16;5010714;28;20030;-71
2021/07/25 08:00:07;;;;;;;4.68;3.30;;;;;;;24.73;49.31;98866.69;5011450;28;20026;-71
2021/07/25 08:02:34;;;;;;;6.00;2.83;;;;;;;24.57;50.17;98870.44;5012006;28;20034;-70
2021/07/25 08:05:01;;;;;;;6.22;2.88;;;;;;;24.11;51.73;98874.13;5011596;28;20029;-71
2021/07/25 08:07:26;;;;;;;7.18;2.90;;;;;;;24.01;51.79;98868.19;5010788;28;20479;-70
2021/07/25 08:09:51;;;;;;;13.98;3.22;;;;;;;24.32;51.53;98873.41;5011487;28;20124;-71
2021/07/25 08:12:17;;;;;;;6.93;3.25;;;;;;;24.86;50.50;98869.53;5005468;28;20494;-71
2021/07/25 08:14:42;;;;;;;7.72;2.80;;;;;;;25.26;48.98;98867.28;5010887;28;20759;-71
2021/07/25 08:17:08;;;;;;;6.20;3.15;;;;;;;25.54;48.78;98871.91;5010382;28;20485;-71
2021/07/25 08:19:33;;;;;;;4.22;2.67;;;;;;;25.55;47.97;98876.25;5011598;28;20030;-71
2021/07/25 08:21:59;;;;;;;5.00;3.15;;;;;;;25.53;47.92;98867.53;5011348;28;20037;-71
2021/07/25 08:24:24;;;;;;;5.75;3.10;;;;;;;25.70;47.54;98877.84;5011222;28;20576;-71
2021/07/25 08:26:50;;;;;;;5.95;2.55;;;;;;;25.70;46.88;98874.31;5005865;28;20035;-71
2021/07/25 08:29:15;;;;;;;5.43;3.20;;;;;;;25.56;46.23;98876.06;5009719;28;20042;-71
2021/07/25 08:31:40;;;;;;;5.47;2.47;;;;;;;25.54;46.79;98870.03;5010192;28;20037;-72
2021/07/25 08:34:06;;;;;;;6.57;2.85;;;;;;;25.55;46.96;98871.72;5010493;28;20029;-64
2021/07/25 08:36:31;;;;;;;6.72;2.78;;;;;;;25.66;46.07;98873.88;5010468;28;20542;-64
2021/07/25 08:38:56;;;;;;;7.75;3.10;;;;;;;25.49;46.78;98862.50;5010184;28;20402;-64
2021/07/25 08:41:34;;;;;;;5.22;2.80;;;;;;;25.38;47.11;98871.16;5009343;28;20057;-63
2021/07/25 08:44:25;;;;;;;6.07;2.75;;;;;;;25.31;46.79;98864.84;5009787;28;20066;-64
2021/07/25 08:46:57;;;;;;;6.30;2.75;;;;;;;25.21;47.15;98878.66;5008417;28;20521;-64
2021/07/25 08:49:58;;;;;;;16.20;3.38;;;;;;;25.05;46.96;98868.06;5009738;28;20546;-64
2021/07/25 08:52:26;;;;;;;4.70;2.58;;;;;;;25.01;47.18;98874.91;4987682;28;20038;-64
2021/07/25 08:54:53;;;;;;;7.03;2.42;;;;;;;25.05;46.28;98877.00;5006144;28;20045;-64
2021/07/25 08:57:21;;;;;;;4.35;2.42;;;;;;;25.18;46.43;98870.09;5009557;28;20030;-64
2021/07/25 08:59:50;;;;;;;3.83;2.60;;;;;;;25.37;45.13;98868.63;5010069;28;20140;-64
2021/07/25 09:02:24;;;;;;;4.95;2.83;;;;;;;25.37;45.56;98874.84;4991369;28;20029;-65
2021/07/25 09:04:52;;;;;;;8.40;2.65;;;;;;;25.48;45.49;98870.81;4994035;28;20042;-65
2021/07/25 09:07:19;;;;;;;4.32;2.40;;;;;;;25.73;44.89;98863.13;5003891;28;20721;-64
2021/07/25 09:09:48;;;;;;;3.97;2.40;;;;;;;26.00;44.38;98863.34;5004331;28;20048;-66
2021/07/25 09:12:16;;;;;;;4.00;2.40;;;;;;;26.52;44.14;98865.50;5003846;28;20034;-66
2021/07/25 09:14:47;;;;;;;4.97;3.05;;;;;;;26.99;42.87;98863.00;4992680;28;20041;-63
2021/07/25 09:17:13;;;;;;;6.35;3.65;;;;;;;27.19;42.00;98861.19;4998314;28;20037;-64
2021/07/25 09:20:10;;;;;;;6.05;2.38;;;;;;;26.51;42.88;98866.56;4988997;28;20803;-65
2021/07/25 09:22:38;;;;;;;7.88;2.55;;;;;;;26.08;42.73;98869.44;4996531;28;20794;-64
2021/07/25 09:25:04;;;;;;;5.18;2.35;;;;;;;25.97;43.05;98864.59;5004375;28;20103;-65
2021/07/25 09:27:29;;;;;;;3.70;2.28;;;;;;;26.65;41.64;98866.63;5003033;28;20497;-68
2021/07/25 09:29:55;;;;;;;5.13;2.72;;;;;;;26.52;42.25;98861.97;5004371;28;20131;-70
2021/07/25 09:32:21;;;;;;;3.63;2.10;;;;;;;26.13;43.91;98866.13;5000930;28;20037;-71
2021/07/25 09:34:48;;;;;;;5.00;3.38;;;;;;;26.28;43.89;98864.13;5003719;28;20081;-70
2021/07/25 09:37:15;;;;;;;6.13;2.63;;;;;;;27.40;41.51;98867.50;5003886;28;20038;-71
2021/07/25 09:39:45;;;;;;;3.42;2.75;;;;;;;28.25;39.94;98852.22;5004418;28;20037;-71
2021/07/25 09:42:12;;;;;;;5.70;2.63;;;;;;;28.91;38.26;98855.72;5003017;28;20034;-69
2021/07/25 09:44:52;;;;;;;3.92;2.40;;;;;;;28.24;39.38;98860.56;5003710;28;20096;-71
2021/07/25 09:47:33;;;;;;;6.40;3.03;;;;;;;28.13;39.27;98858.50;5003532;28;20694;-71
2021/07/25 09:50:02;;;;;;;6.47;3.10;;;;;;;28.31;37.76;98861.38;5003774;28;20066;-71
2021/07/25 09:52:43;;;;;;;3.83;2.58;;;;;;;28.80;36.96;98859.16;5003178;28;20552;-71
2021/07/25 09:55:09;;;;;;;4.55;2.80;;;;;;;29.22;36.73;98846.81;5003461;28;20053;-69
2021/07/25 09:57:36;;;;;;;3.72;2.72;;;;;;;29.85;35.85;98847.78;4987724;28;20747;-70
2021/07/25 10:00:08;;;;;;;4.43;2.83;;;;;;;30.53;34.92;98850.44;4987697;28;20038;-71
2021/07/25 10:02:39;;;;;;;9.85;3.05;;;;;;;31.18;33.68;98851.66;5006323;28;20042;-71
2021/07/25 10:05:09;;;;;;;4.13;2.35;;;;;;;31.66;32.49;98845.28;4987288;28;20122;-72
2021/07/25 10:07:35;;;;;;;5.07;2.63;;;;;;;31.82;32.19;98850.03;5004085;28;20099;-71
2021/07/25 10:10:01;;;;;;;3.45;2.00;;;;;;;31.64;31.58;98842.78;5039204;28;20432;-71
2021/07/25 10:12:32;;;;;;;4.82;2.17;;;;;;;30.14;34.01;98848.97;5007274;28;20514;-71
2021/07/25 10:14:59;;;;;;;6.63;2.53;;;;;;;29.22;36.24;98838.66;5007365;28;20040;-72
2021/07/25 10:17:26;;;;;;;3.53;2.28;;;;;;;28.68;37.50;98850.84;5007046;28;20041;-70
2021/07/25 10:19:53;;;;;;;4.35;2.45;;;;;;;28.13;38.27;98848.53;5038676;28;20048;-71
2021/07/25 10:22:21;;;;;;;8.00;2.45;;;;;;;27.74;39.26;98846.66;5007217;28;20046;-72
2021/07/25 10:24:49;;;;;;;4.93;2.17;;;;;;;27.18;39.15;98847.84;5005680;28;20114;-72
2021/07/25 10:27:17;;;;;;;5.10;2.30;;;;;;;26.67;40.10;98854.59;5005859;28;20604;-70
2021/07/25 10:29:42;;;;;;;6.18;2.38;;;;;;;26.48;41.19;98853.44;5007104;28;20037;-71
2021/07/25 10:32:10;;;;;;;4.00;2.47;;;;;;;26.70;40.61;98859.56;5006076;28;20030;-70
2021/07/25 10:34:40;;;;;;;4.53;2.88;;;;;;;28.19;37.88;98846.81;5007439;28;20033;-72
2021/07/25 10:37:06;;;;;;;3.65;2.22;;;;;;;28.51;36.49;98844.25;5005427;28;20045;-72
2021/07/25 10:39:32;;;;;;;3.30;2.38;;;;;;;27.98;37.75;98854.16;4989784;28;20042;-73
2021/07/25 10:42:00;;;;;;;5.55;2.80;;;;;;;27.32;41.02;98864.97;5007326;28;20049;-72
2021/07/25 10:44:25;;;;;;;5.00;3.08;;;;;;;26.48;43.58;98874.22;5005368;28;20120;-72
2021/07/25 10:47:28;;;;;;;5.88;2.63;;;;;;;25.94;45.91;98869.53;5006424;28;20141;-72
2021/07/25 10:49:59;;;;;;;6.07;2.97;;;;;;;25.44;46.65;98866.81;5005129;28;20061;-72
2021/07/25 10:52:25;;;;;;;3.95;2.60;;;;;;;25.15;48.13;98873.97;5005178;28;20030;-71
2021/07/25 10:54:51;;;;;;;4.32;2.17;;;;;;;25.02;48.04;98858.50;5006617;28;20045;-71
2021/07/25 10:57:18;;;;;;;7.03;2.45;;;;;;;24.92;47.15;98866.06;5002761;28;20614;-71
2021/07/25 10:59:50;;;;;;;4.93;2.83;;;;;;;24.95;46.91;98864.84;5004385;28;20046;-71
2021/07/25 11:02:22;;;;;;;4.07;2.20;;;;;;;25.00;46.99;98862.41;5006536;28;20763;-71
2021/07/25 11:04:50;;;;;;;3.45;2.10;;;;;;;24.97;46.22;98858.25;5005143;28;20116;-71
2021/07/25 11:07:24;;;;;;;4.57;2.28;;;;;;;24.91;46.08;98855.47;5006631;28;20521;-72
2021/07/25 11:10:01;;;;;;;3.58;2.13;;;;;;;25.13;46.10;98854.47;5004914;28;20054;-71
2021/07/25 11:12:46;;;;;;;5.65;2.63;;;;;;;25.23;46.51;98846.94;4986895;28;20042;-72
2021/07/25 11:15:31;;;;;;;3.28;2.60;;;;;;;25.36;46.16;98842.69;4986947;28;20045;-71
2021/07/25 11:17:58;;;;;;;6.60;2.55;;;;;;;25.23;46.80;98840.72;4987432;28;20113;-74
2021/07/25 11:20:58;;;;;;;4.55;3.03;;;;;;;25.36;47.41;98840.81;4987330;28;20577;-71
2021/07/25 11:23:23;;;;;;;4.72;2.53;;;;;;;25.69;47.18;98840.25;4994015;28;20042;-71
2021/07/25 11:25:54;;;;;;;3.67;2.58;;;;;;;26.02;46.21;98832.41;5004877;28;20105;-70
2021/07/25 11:28:42;;;;;;;4.85;3.00;;;;;;;26.21;45.42;98833.56;5007869;28;20061;-71
2021/07/25 11:31:12;;;;;;;6.13;2.40;;;;;;;26.27;45.13;98832.75;5007065;28;20034;-71
2021/07/25 11:33:38;;;;;;;5.60;2.60;;;;;;;26.23;45.28;98831.47;5007343;28;20341;-71
2021/07/25 11:36:04;;;;;;;5.32;2.17;;;;;;;26.13;45.35;98826.44;5007230;28;20481;-71